Time;durP1;ratioP1;P1;durP2;ratioP2;P2;SDS_P1;SDS_P2;PMS_P1;PMS_P2;Temp;Humidity;BMP_temperature;BMP_pressure;BME280_temperature;BME280_humidity;BME280_pressure;Samples;Min_cycle;Max_cycle;Signal;HPM_P1;HPM_P2
2021/12/05 00:24:17;;;;;;;6.22;2.85;;;;;;;;;;5010309;28;20427;-72
2021/12/05 00:26:47;;;;;;;7.20;2.97;;;;;;;;;;5010424;28;20381;-71
2021/12/05 00:32:06;;;;;;;4.43;3.00;;;;;;;;;;5010408;28;19921;-71
2021/12/05 00:50:19;;;;;;;4.68;2.65;;;;;;;;;;5009233;28;20092;-73
2021/12/05 00:58:57;;;;;;;7.65;2.42;;;;;;;;;;5009555;28;20081;-72
2021/12/05 01:16:25;;;;;;;5.28;2.50;;;;;;;;;;5008626;28;20127;-71
2021/12/05 01:18:51;;;;;;;5.03;2.47;;;;;;;;;;5009214;28;20050;-71
2021/12/05 01:21:21;;;;;;;7.15;3.35;;;;;;;;;;5008977;28;20089;-71
2021/12/05 01:24:16;;;;;;;;;;;;;;;;;;5009957;28;20054;-72
2021/12/05 01:29:28;;;;;;;4.55;2.53;;;;;;;;;;5009434;28;20066;-72
2021/12/05 02:09:24;;;;;;;4.00;2.20;;;;;;;;;;4981876;28;20046;-71
2021/12/05 02:12:19;;;;;;;5.47;1.70;;;;;;;;;;5012740;28;20530;-72
2021/12/05 02:39:13;;;;;;;3.92;1.95;;;;;;;;;;5012410;28;20461;-71
2021/12/05 02:41:44;;;;;;;3.10;1.75;;;;;;;;;;4994579;28;20093;-70
2021/12/05 02:44:20;;;;;;;3.45;1.90;;;;;;;;;;4994602;28;20049;-71
2021/12/05 02:46:49;;;;;;;3.90;2.00;;;;;;;;;;5012291;28;20054;-70
2021/12/05 02:49:16;;;;;;;3.15;1.77;;;;;;;;;;5012175;28;20404;-70
2021/12/05 02:51:51;;;;;;;3.35;1.70;;;;;;;;;;5011915;28;20056;-70
2021/12/05 02:54:18;;;;;;;4.28;1.85;;;;;;;;;;5010784;28;21185;-71
2021/12/05 02:56:48;;;;;;;3.83;1.70;;;;;;;;;;5012027;28;20049;-72
2021/12/05 03:01:52;;;;;;;3.13;1.52;;;;;;;;;;5011956;28;20500;-72
2021/12/05 03:04:18;;;;;;;2.88;1.80;;;;;;;;;;5011943;28;20050;-71
2021/12/05 03:06:55;;;;;;;3.20;1.88;;;;;;;;;;5011715;28;20052;-70
2021/12/05 03:09:22;;;;;;;3.47;1.60;;;;;;;;;;5011139;28;20046;-70
2021/12/05 03:11:49;;;;;;;5.18;1.77;;;;;;;;;;5011648;28;20148;-70
2021/12/05 03:14:15;;;;;;;4.00;1.85;;;;;;;;;;4994213;28;20411;-70
2021/12/05 03:16:41;;;;;;;2.75;1.50;;;;;;;;;;5011727;28;20125;-70
2021/12/05 03:19:08;;;;;;;3.53;2.13;;;;;;;;;;5011260;28;20385;-70
2021/12/05 03:21:35;;;;;;;3.78;2.00;;;;;;;;;;5011208;28;20058;-70
2021/12/05 03:24:02;;;;;;;4.10;1.88;;;;;;;;;;5011662;28;20081;-70
2021/12/05 03:26:29;;;;;;;3.17;1.70;;;;;;;;;;5011360;28;20056;-70
2021/12/05 03:28:57;;;;;;;3.30;1.73;;;;;;;;;;5010797;28;20495;-70
2021/12/05 03:31:24;;;;;;;3.53;1.90;;;;;;;;;;5011289;28;20045;-70
2021/12/05 03:33:50;;;;;;;3.35;1.85;;;;;;;;;;5011651;28;20453;-70
2021/12/05 03:36:16;;;;;;;4.85;2.10;;;;;;;;;;5010699;28;20594;-72
2021/12/05 03:38:43;;;;;;;3.25;1.60;;;;;;;;;;5011144;28;20050;-71
2021/12/05 03:41:10;;;;;;;3.88;1.77;;;;;;;;;;5011184;28;20768;-71
2021/12/05 03:43:36;;;;;;;2.78;1.60;;;;;;;;;;5011449;28;20471;-71
2021/12/05 03:46:03;;;;;;;4.00;1.98;;;;;;;;;;5010424;28;20515;-73
2021/12/05 03:48:31;;;;;;;2.72;1.48;;;;;;;;;;4993358;28;20137;-73
2021/12/05 03:50:57;;;;;;;2.30;1.38;;;;;;;;;;5011251;28;20092;-73
2021/12/05 03:53:23;;;;;;;2.90;1.55;;;;;;;;;;5010946;28;20129;-72
2021/12/05 03:55:50;;;;;;;2.45;1.30;;;;;;;;;;5010865;28;20077;-73
2021/12/05 03:58:17;;;;;;;4.60;1.83;;;;;;;;;;4992634;28;20694;-73
2021/12/05 04:00:45;;;;;;;2.63;1.42;;;;;;;;;;4993071;28;20489;-73
2021/12/05 04:03:12;;;;;;;4.18;1.77;;;;;;;;;;5010609;28;20045;-72
2021/12/05 04:05:38;;;;;;;4.65;2.03;;;;;;;;;;5010196;28;20133;-72
2021/12/05 04:08:07;;;;;;;2.22;1.45;;;;;;;;;;5010791;28;20045;-73
2021/12/05 04:10:35;;;;;;;3.53;1.50;;;;;;;;;;5010413;28;20137;-72
2021/12/05 04:13:01;;;;;;;3.13;1.50;;;;;;;;;;5010298;28;20061;-72
2021/12/05 04:15:27;;;;;;;3.33;1.67;;;;;;;;;;5010451;28;20092;-72
2021/12/05 04:17:53;;;;;;;2.53;1.60;;;;;;;;;;5010454;28;20045;-73
2021/12/05 04:20:20;;;;;;;4.38;1.60;;;;;;;;;;5010249;28;20445;-72
2021/12/05 04:22:46;;;;;;;2.35;1.48;;;;;;;;;;5009487;28;20180;-72
2021/12/05 04:25:14;;;;;;;4.78;1.92;;;;;;;;;;5010631;28;20133;-73
2021/12/05 04:27:41;;;;;;;2.97;1.63;;;;;;;;;;4993210;28;20404;-73
2021/12/05 04:30:08;;;;;;;2.85;1.60;;;;;;;;;;5010319;28;20046;-73
2021/12/05 04:32:34;;;;;;;2.83;1.45;;;;;;;;;;4992855;28;20042;-73
2021/12/05 04:35:01;;;;;;;4.40;1.33;;;;;;;;;;5009974;28;20058;-72
2021/12/05 04:37:27;;;;;;;2.45;1.50;;;;;;;;;;5010071;28;20425;-72
2021/12/05 04:39:54;;;;;;;2.47;1.25;;;;;;;;;;5009963;28;20042;-72
2021/12/05 04:42:20;;;;;;;3.33;1.40;;;;;;;;;;5009950;28;20491;-71
2021/12/05 04:44:46;;;;;;;6.57;1.45;;;;;;;;;;5010285;28;20042;-72
2021/12/05 04:47:12;;;;;;;9.88;1.48;;;;;;;;;;5009373;28;20046;-71
2021/12/05 04:49:39;;;;;;;2.65;1.40;;;;;;;;;;5010090;28;20134;-69
2021/12/05 04:52:06;;;;;;;4.57;1.45;;;;;;;;;;5010014;28;20492;-70
2021/12/05 04:54:32;;;;;;;4.13;1.15;;;;;;;;;;5010092;28;20064;-70
2021/12/05 04:56:58;;;;;;;4.43;1.20;;;;;;;;;;5010056;28;20084;-69
2021/12/05 04:59:26;;;;;;;2.92;1.27;;;;;;;;;;5009629;28;20046;-72
2021/12/05 05:01:53;;;;;;;3.92;1.50;;;;;;;;;;5009949;28;20065;-72
2021/12/05 05:04:27;;;;;;;6.93;1.40;;;;;;;;;;5009351;28;20042;-72
2021/12/05 05:06:59;;;;;;;3.28;1.27;;;;;;;;;;5009893;28;20321;-71
2021/12/05 05:09:25;;;;;;;4.70;1.20;;;;;;;;;;5009209;28;20050;-72
2021/12/05 05:11:51;;;;;;;2.42;1.00;;;;;;;;;;5009431;28;20578;-72
2021/12/05 05:14:17;;;;;;;3.67;1.17;;;;;;;;;;5009244;28;20427;-72
2021/12/05 05:16:45;;;;;;;3.75;1.40;;;;;;;;;;5008944;28;20053;-72
2021/12/05 05:19:13;;;;;;;2.88;1.60;;;;;;;;;;5009124;28;20147;-73
2021/12/05 05:43:21;;;;;;;3.40;1.20;;;;;;;;;;5009202;28;20385;-71
2021/12/05 05:50:52;;;;;;;2.97;1.38;;;;;;;;;;5009392;28;20064;-71
2021/12/05 05:53:18;;;;;;;2.40;1.27;;;;;;;;;;5008671;28;20041;-71
2021/12/05 05:55:45;;;;;;;4.28;1.27;;;;;;;;;;5009602;28;20468;-71
2021/12/05 05:58:14;;;;;;;4.47;1.20;;;;;;;;;;5009321;28;20136;-71
2021/12/05 06:00:53;;;;;;;2.92;1.33;;;;;;;;;;5009279;28;20457;-71
2021/12/05 06:03:22;;;;;;;4.78;1.08;;;;;;;;;;5009131;28;20050;-72
2021/12/05 06:05:55;;;;;;;3.03;1.40;;;;;;;;;;5008499;28;20049;-71
2021/12/05 06:08:24;;;;;;;1.90;1.00;;;;;;;;;;5009044;28;20420;-71
2021/12/05 06:10:51;;;;;;;2.72;1.15;;;;;;;;;;5008881;28;20054;-71
2021/12/05 06:13:19;;;;;;;3.15;1.23;;;;;;;;;;5008538;28;20456;-72
2021/12/05 06:15:46;;;;;;;4.57;1.25;;;;;;;;;;5008893;28;20045;-71
2021/12/05 06:18:12;;;;;;;3.55;1.40;;;;;;;;;;5008507;28;20412;-71
2021/12/05 06:20:38;;;;;;;3.05;1.60;;;;;;;;;;5008608;28;20400;-71
2021/12/05 06:23:05;;;;;;;2.55;1.08;;;;;;;;;;5009214;28;20053;-71
2021/12/05 06:25:33;;;;;;;2.20;1.05;;;;;;;;;;5008895;28;20046;-71
2021/12/05 06:28:02;;;;;;;3.05;1.20;;;;;;;;;;5009526;28;20049;-71
2021/12/05 06:30:50;;;;;;;;;;;;;;;;;;5012346;28;20076;-71
2021/12/05 06:46:20;;;;;;;8.35;1.42;;;;;;;;;;5012229;28;20484;-72
2021/12/05 06:48:46;;;;;;;9.13;1.20;;;;;;;;;;5012313;28;21187;-72
2021/12/05 06:51:13;;;;;;;8.02;1.55;;;;;;;;;;5011606;28;20042;-72
2021/12/05 06:53:40;;;;;;;4.80;1.55;;;;;;;;;;5011983;28;20046;-70
2021/12/05 06:56:07;;;;;;;7.72;1.33;;;;;;;;;;5012106;28;20526;-70
2021/12/05 06:58:33;;;;;;;5.07;1.30;;;;;;;;;;5012341;28;20082;-70
2021/12/05 07:01:01;;;;;;;5.95;1.98;;;;;;;;;;5011014;28;20042;-70
2021/12/05 07:03:27;;;;;;;5.93;1.55;;;;;;;;;;5011004;28;20054;-70
2021/12/05 07:08:21;;;;;;;7.07;1.65;;;;;;;;;;5011064;28;20092;-71
2021/12/05 07:13:48;;;;;;;8.55;1.70;;;;;;;;;;4992840;28;20419;-71
2021/12/05 07:16:20;;;;;;;6.35;1.95;;;;;;;;;;5010974;28;20133;-70
2021/12/05 07:21:47;;;;;;;3.10;1.40;;;;;;;;;;5007513;28;20061;-71
2021/12/05 07:24:30;;;;;;;4.50;1.27;;;;;;;;;;4994701;28;20045;-70
2021/12/05 07:40:29;;;;;;;5.38;1.20;;;;;;;;;;5010228;28;20072;-70
2021/12/05 07:42:59;;;;;;;3.80;1.30;;;;;;;;;;5011509;28;20416;-69
2021/12/05 07:45:34;;;;;;;5.32;1.00;;;;;;;;;;5011384;28;20049;-69
2021/12/05 07:48:09;;;;;;;3.60;1.02;;;;;;;;;;5010717;28;20576;-70
2021/12/05 07:50:45;;;;;;;4.53;1.60;;;;;;;;;;5011023;28;20056;-70
2021/12/05 07:53:19;;;;;;;9.75;1.65;;;;;;;;;;5011006;28;20046;-69
2021/12/05 07:55:48;;;;;;;3.03;1.20;;;;;;;;;;5010980;28;20057;-69
2021/12/05 07:58:47;;;;;;;2.60;1.33;;;;;;;;;;5010986;28;20128;-69
2021/12/05 08:17:36;;;;;;;3.03;1.27;;;;;;;;;;5010346;28;20586;-70
2021/12/05 08:20:03;;;;;;;3.22;1.17;;;;;;;;;;5010925;28;20038;-70
2021/12/05 08:22:29;;;;;;;5.32;1.02;;;;;;;;;;5010238;28;20088;-69
2021/12/05 08:24:59;;;;;;;2.60;1.25;;;;;;;;;;5010706;28;20042;-69
2021/12/05 08:27:25;;;;;;;3.00;1.13;;;;;;;;;;4992927;28;20056;-69
2021/12/05 08:29:56;;;;;;;2.65;1.27;;;;;;;;;;5010042;28;20471;-69
2021/12/05 08:32:41;;;;;;;5.10;1.20;;;;;;;;;;5010457;28;20057;-71
2021/12/05 08:43:07;;;;;;;2.00;1.00;;;;;;;;;;5009513;28;20514;-71
2021/12/05 09:08:23;;;;;;;7.75;1.40;;;;;;;;;;5009952;28;20128;-71
2021/12/05 09:40:15;;;;;;;4.20;1.70;;;;;;;;;;4970520;28;20054;-70
2021/12/05 10:07:18;;;;;;;6.88;3.00;;;;;;;;;;4978581;28;20046;-72
2021/12/05 10:15:13;;;;;;;;;;;;;;;;;;4982706;28;20046;-71
2021/12/05 10:18:11;;;;;;;6.57;3.08;;;;;;;;;;4981406;28;20383;-71
2021/12/05 10:35:10;;;;;;;5.63;3.58;;;;;;;;;;4983040;28;20054;-71
2021/12/05 10:37:36;;;;;;;6.68;3.50;;;;;;;;;;4977620;28;20398;-72
2021/12/05 10:40:07;;;;;;;5.63;3.85;;;;;;;;;;4980216;28;20053;-72
2021/12/05 10:42:44;;;;;;;6.70;3.78;;;;;;;;;;4976383;28;20121;-72
2021/12/05 10:45:19;;;;;;;7.32;3.92;;;;;;;;;;4981950;28;20046;-71
2021/12/05 10:47:50;;;;;;;6.18;4.38;;;;;;;;;;4979718;28;20130;-70
2021/12/05 10:50:30;;;;;;;7.78;4.70;;;;;;;;;;4965372;28;20050;-70
2021/12/05 10:53:15;;;;;;;8.40;4.53;;;;;;;;;;5000407;28;20419;-70
2021/12/05 10:55:41;;;;;;;9.55;5.97;;;;;;;;;;4990922;28;20440;-70
2021/12/05 10:58:07;;;;;;;8.18;5.28;;;;;;;;;;4981998;28;20039;-70
2021/12/05 11:00:33;;;;;;;7.95;5.10;;;;;;;;;;4979788;28;20058;-70
2021/12/05 11:03:16;;;;;;;8.43;5.05;;;;;;;;;;4979110;28;20053;-71
2021/12/05 11:05:42;;;;;;;8.50;5.00;;;;;;;;;;4979027;28;20050;-69
2021/12/05 11:08:27;;;;;;;10.20;5.40;;;;;;;;;;4979266;28;20055;-69
2021/12/05 11:11:05;;;;;;;7.32;4.82;;;;;;;;;;4981268;28;20497;-69
2021/12/05 11:13:31;;;;;;;9.98;5.38;;;;;;;;;;4975605;28;20050;-69
2021/12/05 11:15:57;;;;;;;10.07;4.82;;;;;;;;;;4974329;28;20043;-69
2021/12/05 11:18:43;;;;;;;8.88;5.38;;;;;;;;;;4982950;28;20125;-70
2021/12/05 11:21:25;;;;;;;8.23;4.82;;;;;;;;;;4977555;28;20051;-70
2021/12/05 11:24:10;;;;;;;8.65;5.15;;;;;;;;;;4981578;28;20380;-70
2021/12/05 11:26:37;;;;;;;7.65;4.65;;;;;;;;;;4977789;28;20038;-70
2021/12/05 11:29:04;;;;;;;9.57;5.03;;;;;;;;;;4980322;28;20065;-70
2021/12/05 11:31:31;;;;;;;8.05;4.93;;;;;;;;;;4981424;28;20409;-70
2021/12/05 11:33:58;;;;;;;7.82;4.43;;;;;;;;;;4982871;28;20046;-70
2021/12/05 11:36:25;;;;;;;8.10;4.65;;;;;;;;;;4985112;28;20393;-70
2021/12/05 11:38:52;;;;;;;8.13;4.45;;;;;;;;;;4972535;28;20050;-71
2021/12/05 11:41:20;;;;;;;7.97;4.57;;;;;;;;;;4971957;28;20082;-69
2021/12/05 11:43:58;;;;;;;7.50;4.28;;;;;;;;;;4984813;28;20050;-69
2021/12/05 11:46:31;;;;;;;7.20;4.03;;;;;;;;;;4976515;28;20046;-69
2021/12/05 11:49:05;;;;;;;8.10;4.57;;;;;;;;;;4981811;28;20445;-69
2021/12/05 11:51:34;;;;;;;6.88;3.80;;;;;;;;;;4976005;28;20116;-69
2021/12/05 11:54:00;;;;;;;6.07;3.97;;;;;;;;;;4978377;28;20053;-69
2021/12/05 11:56:35;;;;;;;9.13;4.25;;;;;;;;;;4980952;28;20074;-69
2021/12/05 11:59:04;;;;;;;9.13;4.13;;;;;;;;;;4978223;28;20093;-69
2021/12/05 12:01:53;;;;;;;6.60;3.60;;;;;;;;;;4956833;28;20141;-68
2021/12/05 12:04:21;;;;;;;7.25;3.50;;;;;;;;;;4979704;28;20042;-69
2021/12/05 12:07:04;;;;;;;5.95;3.67;;;;;;;;;;4979176;28;20043;-69
2021/12/05 12:09:30;;;;;;;7.13;3.90;;;;;;;;;;4977688;28;20149;-70
2021/12/05 12:11:56;;;;;;;6.13;3.50;;;;;;;;;;4979081;28;20409;-69
2021/12/05 12:14:22;;;;;;;6.22;3.22;;;;;;;;;;4981295;28;20359;-69
2021/12/05 12:16:50;;;;;;;5.63;3.13;;;;;;;;;;4978122;28;20144;-69
2021/12/05 12:19:21;;;;;;;6.05;3.40;;;;;;;;;;4978554;28;20397;-69
2021/12/05 12:21:48;;;;;;;6.47;3.20;;;;;;;;;;4977866;28;20129;-69
2021/12/05 12:24:15;;;;;;;5.10;3.00;;;;;;;;;;4980404;28;20069;-69
2021/12/05 12:26:42;;;;;;;7.25;3.58;;;;;;;;;;4987743;28;20047;-69
2021/12/05 12:29:11;;;;;;;5.97;2.97;;;;;;;;;;4981355;28;20086;-70
2021/12/05 12:31:37;;;;;;;;;;;;;;;;;;4978970;28;20057;-69
2021/12/05 12:34:11;;;;;;;4.85;2.50;;;;;;;;;;4976664;28;20245;-70
2021/12/05 12:36:48;;;;;;;4.97;3.03;;;;;;;;;;4983032;28;20042;-69
2021/12/05 12:39:18;;;;;;;8.30;3.20;;;;;;;;;;4977103;28;20042;-69
2021/12/05 12:42:02;;;;;;;6.22;3.00;;;;;;;;;;4979642;28;21089;-69
2021/12/05 12:44:28;;;;;;;6.35;2.97;;;;;;;;;;4964433;28;20038;-69
2021/12/05 12:46:59;;;;;;;5.90;3.05;;;;;;;;;;4960080;28;20046;-68
2021/12/05 12:49:28;;;;;;;5.32;2.65;;;;;;;;;;4982937;28;20271;-69
2021/12/05 12:51:57;;;;;;;14.63;2.78;;;;;;;;;;4961982;28;20161;-69
2021/12/05 12:54:26;;;;;;;13.55;3.83;;;;;;;;;;4978305;28;20072;-70
2021/12/05 12:57:01;;;;;;;9.77;3.58;;;;;;;;;;4979099;28;20121;-70
2021/12/05 12:59:29;;;;;;;8.13;2.83;;;;;;;;;;4956664;28;20046;-70
2021/12/05 13:02:36;;;;;;;10.68;2.90;;;;;;;;;;4978123;28;20181;-70
2021/12/05 13:05:04;;;;;;;9.88;3.10;;;;;;;;;;4974753;28;20046;-70
2021/12/05 13:10:24;;;;;;;16.50;3.22;;;;;;;;;;4974884;28;20523;-70
2021/12/05 13:12:51;;;;;;;7.22;3.38;;;;;;;;;;4975260;28;20069;-71
2021/12/05 13:15:21;;;;;;;6.40;2.33;;;;;;;;;;4978323;28;20081;-71
2021/12/05 13:17:47;;;;;;;14.57;3.50;;;;;;;;;;4974840;28;20093;-71
2021/12/05 13:20:15;;;;;;;8.30;2.70;;;;;;;;;;4981586;28;20058;-71
2021/12/05 13:23:10;;;;;;;7.75;2.40;;;;;;;;;;4983356;28;20060;-72
2021/12/05 13:25:56;;;;;;;8.05;2.42;;;;;;;;;;4966976;28;20049;-71
2021/12/05 13:28:38;;;;;;;6.22;2.42;;;;;;;;;;4980305;28;20130;-71
2021/12/05 13:31:22;;;;;;;6.82;2.70;;;;;;;;;;4978673;28;20042;-71
2021/12/05 13:33:49;;;;;;;6.65;2.20;;;;;;;;;;4980926;28;20489;-71
2021/12/05 13:36:28;;;;;;;6.88;2.95;;;;;;;;;;4975834;28;20408;-69
2021/12/05 13:38:54;;;;;;;6.43;2.28;;;;;;;;;;4980653;28;20096;-70
2021/12/05 13:41:20;;;;;;;5.38;1.88;;;;;;;;;;4983329;28;20049;-69
2021/12/05 13:44:01;;;;;;;4.93;2.47;;;;;;;;;;4987291;28;20046;-71
2021/12/05 13:46:34;;;;;;;7.82;3.17;;;;;;;;;;4984114;28;20177;-71
2021/12/05 13:49:01;;;;;;;7.93;2.15;;;;;;;;;;4985978;28;20038;-69
2021/12/05 13:51:28;;;;;;;10.98;2.63;;;;;;;;;;4982009;28;20039;-70
2021/12/05 13:53:59;;;;;;;9.15;2.35;;;;;;;;;;4984991;28;20519;-70
2021/12/05 13:56:26;;;;;;;8.25;2.20;;;;;;;;;;4987251;28;20447;-71
2021/12/05 13:58:53;;;;;;;6.88;2.20;;;;;;;;;;4987383;28;20045;-70
2021/12/05 14:01:25;;;;;;;5.95;2.10;;;;;;;;;;4982440;28;20047;-70
2021/12/05 14:03:51;;;;;;;8.95;2.47;;;;;;;;;;4983604;28;20122;-70
2021/12/05 14:06:23;;;;;;;6.45;2.20;;;;;;;;;;4985114;28;20186;-70
2021/12/05 14:08:49;;;;;;;10.20;2.58;;;;;;;;;;4985414;28;20049;-70
2021/12/05 14:11:15;;;;;;;5.00;2.47;;;;;;;;;;4979883;28;20058;-70
2021/12/05 14:13:41;;;;;;;8.73;2.25;;;;;;;;;;4977779;28;20057;-70
2021/12/05 14:16:07;;;;;;;5.63;2.72;;;;;;;;;;4981585;28;20468;-70
2021/12/05 14:18:34;;;;;;;4.75;2.00;;;;;;;;;;4986147;28;20061;-71
2021/12/05 14:21:13;;;;;;;5.80;2.30;;;;;;;;;;4987942;28;20460;-70
2021/12/05 14:23:39;;;;;;;;;;;;;;;;;;4984135;28;20438;-68
2021/12/05 14:26:15;;;;;;;7.05;2.33;;;;;;;;;;4983397;28;19925;-70
2021/12/05 14:28:41;;;;;;;11.52;2.28;;;;;;;;;;4983134;28;20042;-70
2021/12/05 14:31:07;;;;;;;5.80;1.92;;;;;;;;;;4986120;28;20509;-69
2021/12/05 14:33:47;;;;;;;6.50;2.28;;;;;;;;;;4992135;28;20138;-69
2021/12/05 14:36:20;;;;;;;5.20;1.88;;;;;;;;;;4989300;28;20043;-68
2021/12/05 14:38:46;;;;;;;5.47;2.05;;;;;;;;;;4980845;28;20046;-68
2021/12/05 14:41:12;;;;;;;4.75;2.22;;;;;;;;;;4984889;28;20458;-68
2021/12/05 14:43:38;;;;;;;4.65;2.20;;;;;;;;;;4983474;28;20050;-69
2021/12/05 14:46:05;;;;;;;6.97;2.42;;;;;;;;;;4983234;28;20061;-69
2021/12/05 14:48:31;;;;;;;4.72;2.00;;;;;;;;;;4977432;28;20046;-70
2021/12/05 14:51:00;;;;;;;4.95;1.90;;;;;;;;;;4981026;28;20121;-70
2021/12/05 14:53:28;;;;;;;8.20;2.13;;;;;;;;;;4978074;28;20123;-69
2021/12/05 14:55:58;;;;;;;5.43;1.75;;;;;;;;;;4983613;28;20049;-69
2021/12/05 14:58:27;;;;;;;7.05;2.22;;;;;;;;;;4978952;28;20047;-69
2021/12/05 15:00:55;;;;;;;13.38;2.22;;;;;;;;;;4986996;28;20052;-70
2021/12/05 15:03:24;;;;;;;4.25;2.08;;;;;;;;;;4994398;28;20428;-70
2021/12/05 15:05:52;;;;;;;5.95;1.80;;;;;;;;;;4977582;28;20097;-69
2021/12/05 15:08:20;;;;;;;4.90;3.00;;;;;;;;;;4978929;28;20046;-68
2021/12/05 15:10:51;;;;;;;4.15;1.60;;;;;;;;;;4982358;28;20444;-69
2021/12/05 15:13:18;;;;;;;3.38;1.90;;;;;;;;;;4982279;28;20051;-68
2021/12/05 15:15:45;;;;;;;4.72;2.30;;;;;;;;;;4966144;28;20049;-69
2021/12/05 15:18:15;;;;;;;4.60;1.70;;;;;;;;;;4979540;28;20077;-68
2021/12/05 15:20:41;;;;;;;3.88;1.58;;;;;;;;;;4990273;28;20038;-68
2021/12/05 15:23:08;;;;;;;5.13;2.10;;;;;;;;;;4985618;28;20460;-68
2021/12/05 15:25:35;;;;;;;4.57;1.80;;;;;;;;;;4983413;28;20137;-68
2021/12/05 15:28:02;;;;;;;4.07;1.65;;;;;;;;;;4980717;28;20121;-68
2021/12/05 15:30:36;;;;;;;3.03;1.55;;;;;;;;;;4980820;28;20046;-67
2021/12/05 15:33:04;;;;;;;5.25;2.28;;;;;;;;;;4980089;28;20349;-68
2021/12/05 15:35:30;;;;;;;3.72;1.85;;;;;;;;;;4975061;28;20042;-67
2021/12/05 15:38:01;;;;;;;5.10;1.60;;;;;;;;;;4977516;28;20034;-68
2021/12/05 15:40:28;;;;;;;2.83;1.58;;;;;;;;;;4978095;28;20540;-68
2021/12/05 15:42:59;;;;;;;4.13;1.70;;;;;;;;;;4976883;28;20081;-70
2021/12/05 15:45:25;;;;;;;3.55;1.45;;;;;;;;;;4979931;28;20069;-69
2021/12/05 15:47:51;;;;;;;4.28;1.70;;;;;;;;;;4980964;28;20047;-70
2021/12/05 15:50:19;;;;;;;3.85;1.70;;;;;;;;;;4977247;28;20047;-69
2021/12/05 15:52:45;;;;;;;3.63;1.75;;;;;;;;;;4960769;28;20059;-68
2021/12/05 15:55:14;;;;;;;3.30;1.58;;;;;;;;;;4979892;28;20046;-69
2021/12/05 15:57:43;;;;;;;4.55;1.60;;;;;;;;;;4981477;28;20758;-69
2021/12/05 16:00:15;;;;;;;3.42;1.55;;;;;;;;;;4979903;28;20038;-69
2021/12/05 16:02:46;;;;;;;3.72;1.70;;;;;;;;;;4981753;28;20057;-69
2021/12/05 16:05:18;;;;;;;3.42;1.55;;;;;;;;;;4984583;28;20054;-69
2021/12/05 16:07:44;;;;;;;4.60;1.92;;;;;;;;;;4982562;28;20038;-70
2021/12/05 16:10:12;;;;;;;4.28;1.75;;;;;;;;;;4980516;28;20042;-69
2021/12/05 16:12:41;;;;;;;3.42;1.75;;;;;;;;;;4980743;28;20077;-69
2021/12/05 16:15:08;;;;;;;4.32;1.80;;;;;;;;;;4980476;28;20057;-69
2021/12/05 16:17:34;;;;;;;3.55;1.58;;;;;;;;;;4984121;28;20046;-69
2021/12/05 16:20:11;;;;;;;3.80;1.60;;;;;;;;;;4981710;28;20133;-70
2021/12/05 16:22:57;;;;;;;3.90;1.80;;;;;;;;;;4980539;28;20042;-71
2021/12/05 16:25:23;;;;;;;4.32;2.17;;;;;;;;;;4979219;28;20049;-70
2021/12/05 16:27:51;;;;;;;6.15;2.53;;;;;;;;;;4981783;28;20378;-69
2021/12/05 16:30:21;;;;;;;4.63;2.50;;;;;;;;;;4979240;28;20047;-70
2021/12/05 16:32:47;;;;;;;4.60;2.65;;;;;;;;;;4982318;28;20042;-70
2021/12/05 16:35:24;;;;;;;4.80;2.95;;;;;;;;;;4981059;28;20416;-70
2021/12/05 16:37:50;;;;;;;6.68;3.20;;;;;;;;;;4984982;28;20489;-69
2021/12/05 16:40:16;;;;;;;7.55;3.40;;;;;;;;;;4982702;28;20050;-70
2021/12/05 16:42:44;;;;;;;7.97;3.90;;;;;;;;;;4982666;28;20101;-70
2021/12/05 16:45:11;;;;;;;9.07;4.30;;;;;;;;;;4980544;28;20112;-68
2021/12/05 16:47:37;;;;;;;7.63;4.30;;;;;;;;;;4982469;28;20046;-68
2021/12/05 16:50:06;;;;;;;10.55;4.72;;;;;;;;;;4980263;28;20583;-70
2021/12/05 16:52:36;;;;;;;9.50;5.15;;;;;;;;;;4978769;28;20054;-71
2021/12/05 16:55:13;;;;;;;10.23;5.65;;;;;;;;;;4981611;28;20412;-69
2021/12/05 16:57:51;;;;;;;11.20;5.72;;;;;;;;;;4979200;28;20126;-69
2021/12/05 17:00:19;;;;;;;9.20;5.72;;;;;;;;;;4982749;28;20069;-69
2021/12/05 17:02:51;;;;;;;11.88;6.05;;;;;;;;;;4983654;28;20053;-68
2021/12/05 17:05:21;;;;;;;9.27;5.95;;;;;;;;;;4978374;28;20077;-69
2021/12/05 17:07:50;;;;;;;11.25;6.50;;;;;;;;;;4965179;28;20474;-69
2021/12/05 17:10:21;;;;;;;9.68;6.72;;;;;;;;;;4979881;28;20072;-69
2021/12/05 17:12:52;;;;;;;13.30;7.32;;;;;;;;;;4984401;28;20054;-68
2021/12/05 17:15:21;;;;;;;13.55;6.78;;;;;;;;;;4987473;28;20385;-69
2021/12/05 17:17:48;;;;;;;13.88;6.97;;;;;;;;;;4982054;28;20436;-69
2021/12/05 17:20:18;;;;;;;15.38;7.40;;;;;;;;;;4985084;28;20034;-68
2021/12/05 17:22:55;;;;;;;10.85;6.43;;;;;;;;;;4981289;28;20103;-68
2021/12/05 17:25:28;;;;;;;12.32;7.30;;;;;;;;;;4982144;28;20050;-69
2021/12/05 17:27:54;;;;;;;13.75;7.28;;;;;;;;;;4983480;28;20038;-69
2021/12/05 17:30:20;;;;;;;11.40;7.05;;;;;;;;;;4965962;28;20434;-69
2021/12/05 17:32:46;;;;;;;12.07;7.68;;;;;;;;;;4982873;28;20041;-69
2021/12/05 17:35:13;;;;;;;13.38;7.95;;;;;;;;;;4984520;28;20038;-68
2021/12/05 17:37:43;;;;;;;13.88;7.72;;;;;;;;;;4979739;28;20045;-69
2021/12/05 17:40:09;;;;;;;12.13;7.72;;;;;;;;;;4982428;28;20088;-69
2021/12/05 17:42:35;;;;;;;16.73;8.15;;;;;;;;;;4983224;28;20042;-69
2021/12/05 17:45:04;;;;;;;13.35;8.10;;;;;;;;;;4980052;28;20052;-69
2021/12/05 17:47:30;;;;;;;15.50;7.70;;;;;;;;;;4977544;28;20038;-68
2021/12/05 17:49:57;;;;;;;15.98;7.90;;;;;;;;;;4983461;28;20580;-69
2021/12/05 17:52:24;;;;;;;13.23;7.93;;;;;;;;;;4983465;28;20258;-69
2021/12/05 17:54:56;;;;;;;12.80;7.72;;;;;;;;;;4985288;28;20088;-69
2021/12/05 17:57:34;;;;;;;13.40;8.15;;;;;;;;;;4980688;28;20104;-68
2021/12/05 18:00:12;;;;;;;14.63;8.40;;;;;;;;;;4982831;28;20446;-68
2021/12/05 18:02:44;;;;;;;14.25;7.80;;;;;;;;;;4980765;28;20063;-68
2021/12/05 18:05:13;;;;;;;13.55;7.82;;;;;;;;;;4981246;28;20473;-68
2021/12/05 18:07:39;;;;;;;13.57;8.27;;;;;;;;;;4981279;28;20485;-68
2021/12/05 18:10:06;;;;;;;13.38;8.30;;;;;;;;;;4980627;28;20381;-68
2021/12/05 18:12:34;;;;;;;14.35;7.82;;;;;;;;;;4979033;28;20138;-68
2021/12/05 18:15:05;;;;;;;13.45;7.63;;;;;;;;;;4981728;28;20073;-68
2021/12/05 18:17:31;;;;;;;13.30;8.00;;;;;;;;;;4979352;28;20043;-69
2021/12/05 18:19:57;;;;;;;13.45;8.00;;;;;;;;;;4978930;28;20038;-68
2021/12/05 18:22:23;;;;;;;11.63;7.63;;;;;;;;;;4984029;28;20049;-68
2021/12/05 18:24:49;;;;;;;13.82;8.75;;;;;;;;;;4980276;28;20041;-68
2021/12/05 18:27:16;;;;;;;13.80;8.30;;;;;;;;;;4966459;28;20043;-67
2021/12/05 18:29:42;;;;;;;14.27;8.10;;;;;;;;;;4983863;28;20564;-68
2021/12/05 18:32:11;;;;;;;16.13;8.27;;;;;;;;;;4984084;28;20043;-68
2021/12/05 18:34:37;;;;;;;12.27;7.78;;;;;;;;;;4983413;28;20138;-67
2021/12/05 18:37:05;;;;;;;14.95;7.97;;;;;;;;;;4985882;28;20823;-69
2021/12/05 18:39:33;;;;;;;11.73;7.60;;;;;;;;;;4982724;28;20144;-69
2021/12/05 18:42:04;;;;;;;12.32;7.70;;;;;;;;;;4984906;28;20594;-68
2021/12/05 18:44:32;;;;;;;12.43;7.40;;;;;;;;;;4985076;28;20147;-68
2021/12/05 18:46:58;;;;;;;13.48;7.93;;;;;;;;;;4984929;28;20073;-68
2021/12/05 18:49:26;;;;;;;13.35;8.15;;;;;;;;;;4987322;28;20038;-68
2021/12/05 18:51:53;;;;;;;14.32;8.10;;;;;;;;;;4984463;28;20129;-67
2021/12/05 18:54:19;;;;;;;13.88;7.70;;;;;;;;;;4983243;28;20049;-69
2021/12/05 18:56:48;;;;;;;11.65;6.97;;;;;;;;;;4981161;28;20069;-68
2021/12/05 18:59:14;;;;;;;10.20;7.22;;;;;;;;;;4984778;28;20089;-69
2021/12/05 19:04:39;;;;;;;12.73;8.00;;;;;;;;;;4984963;28;20078;-69
2021/12/05 19:07:13;;;;;;;12.50;7.60;;;;;;;;;;4983070;28;20412;-69
2021/12/05 19:12:16;;;;;;;13.15;7.22;;;;;;;;;;4982752;28;20054;-67
2021/12/05 19:14:44;;;;;;;10.73;7.03;;;;;;;;;;4965721;28;20389;-68
2021/12/05 19:17:16;;;;;;;11.43;6.78;;;;;;;;;;4982027;28;20043;-69
2021/12/05 19:19:45;;;;;;;9.38;6.35;;;;;;;;;;4982771;28;20101;-69
2021/12/05 19:22:16;;;;;;;12.23;7.50;;;;;;;;;;4976230;28;20133;-69
2021/12/05 19:24:43;;;;;;;12.32;7.22;;;;;;;;;;4980508;28;20042;-69
2021/12/05 19:27:15;;;;;;;11.32;6.90;;;;;;;;;;4983699;28;20427;-69
2021/12/05 19:29:42;;;;;;;10.10;6.07;;;;;;;;;;4979317;28;20124;-69
2021/12/05 19:32:09;;;;;;;11.63;6.38;;;;;;;;;;4980363;28;20038;-69
2021/12/05 19:34:36;;;;;;;10.27;6.70;;;;;;;;;;4965787;28;20519;-68
2021/12/05 19:37:03;;;;;;;12.30;6.40;;;;;;;;;;4985125;28;20096;-69
2021/12/05 19:39:29;;;;;;;10.55;7.18;;;;;;;;;;4983239;28;20505;-70
2021/12/05 19:41:56;;;;;;;10.77;6.63;;;;;;;;;;4984546;28;20078;-70
2021/12/05 19:44:23;;;;;;;10.70;6.28;;;;;;;;;;4985817;28;20441;-69
2021/12/05 19:46:49;;;;;;;9.55;5.72;;;;;;;;;;4983017;28;20042;-69
2021/12/05 19:49:16;;;;;;;10.60;5.78;;;;;;;;;;4985866;28;20047;-70
2021/12/05 19:51:42;;;;;;;9.65;5.53;;;;;;;;;;4985958;28;20453;-71
2021/12/05 19:54:09;;;;;;;9.80;6.03;;;;;;;;;;4982799;28;20089;-70
2021/12/05 19:56:36;;;;;;;9.43;5.93;;;;;;;;;;4980133;28;20057;-70
2021/12/05 19:59:02;;;;;;;9.07;5.45;;;;;;;;;;4984955;28;20038;-70
2021/12/05 20:01:28;;;;;;;8.57;5.55;;;;;;;;;;4984698;28;20054;-70
2021/12/05 20:03:54;;;;;;;8.45;5.30;;;;;;;;;;4984052;28;20034;-70
2021/12/05 20:06:23;;;;;;;8.77;5.63;;;;;;;;;;4981317;28;20051;-70
2021/12/05 20:08:50;;;;;;;8.80;5.60;;;;;;;;;;4983155;28;20046;-70
2021/12/05 20:11:17;;;;;;;7.85;5.35;;;;;;;;;;4984705;28;20539;-70
2021/12/05 20:13:44;;;;;;;9.32;5.28;;;;;;;;;;4987706;28;20062;-70
2021/12/05 20:16:10;;;;;;;8.32;5.03;;;;;;;;;;4991067;28;20046;-69